Time;durP1;ratioP1;P1;durP2;ratioP2;P2;SDS_P1;SDS_P2;PMS_P1;PMS_P2;Temp;Humidity;BMP_temperature;BMP_pressure;BME280_temperature;BME280_humidity;BME280_pressure;Samples;Min_cycle;Max_cycle;Signal;HPM_P1;HPM_P2
2023/08/29 04:06:06;;;;;;;1.70;1.60;;;14.30;99.90;;;;;;5407323;22;20623;-61
2023/08/29 04:08:33;;;;;;;1.97;1.87;;;14.40;99.90;;;;;;5076698;28;20452;-61
2023/08/29 04:10:58;;;;;;;2.37;2.27;;;14.30;99.90;;;;;;5076334;28;20422;-60
2023/08/29 04:13:24;;;;;;;2.17;1.97;;;14.40;99.90;;;;;;5076953;28;20200;-60
2023/08/29 04:15:50;;;;;;;2.50;2.30;;;14.30;99.90;;;;;;5045649;28;20199;-60
2023/08/29 04:18:16;;;;;;;3.20;3.00;;;14.40;99.90;;;;;;5056546;28;20390;-60
2023/08/29 04:20:43;;;;;;;2.60;2.40;;;14.30;99.90;;;;;;5056770;28;20253;-60
2023/08/29 04:23:10;;;;;;;2.17;2.07;;;14.40;99.90;;;;;;5056759;28;20789;-60
2023/08/29 04:25:36;;;;;;;2.80;2.60;;;14.30;99.90;;;;;;5055875;28;20431;-60
2023/08/29 04:28:03;;;;;;;2.83;2.27;;;14.40;99.90;;;;;;5056573;28;20470;-61
2023/08/29 04:30:29;;;;;;;3.30;3.10;;;14.30;99.90;;;;;;5056679;28;20735;-62
2023/08/29 04:32:56;;;;;;;3.97;3.63;;;14.40;99.90;;;;;;5056548;28;20394;-60
2023/08/29 04:35:21;;;;;;;3.13;2.87;;;14.30;99.90;;;;;;5054845;28;20434;-60
2023/08/29 04:37:51;;;;;;;3.63;3.40;;;14.30;99.90;;;;;;5056525;28;20403;-60
2023/08/29 04:40:17;;;;;;;3.40;2.93;;;14.40;99.90;;;;;;5056173;28;20224;-60
2023/08/29 04:42:44;;;;;;;3.60;3.30;;;14.40;99.90;;;;;;5056196;28;20411;-60
2023/08/29 04:45:10;;;;;;;3.80;3.50;;;14.40;99.90;;;;;;5055739;28;20557;-60
2023/08/29 04:47:37;;;;;;;3.77;3.47;;;14.40;99.90;;;;;;5056447;28;20397;-60
2023/08/29 04:50:03;;;;;;;4.17;3.70;;;14.40;99.90;;;;;;5054714;28;20418;-60
2023/08/29 04:52:29;;;;;;;4.47;4.10;;;14.40;99.90;;;;;;5056111;28;20902;-60
2023/08/29 04:54:55;;;;;;;4.43;3.50;;;14.40;99.90;;;;;;5055217;28;20421;-59
2023/08/29 04:57:21;;;;;;;5.00;4.60;;;14.40;99.90;;;;;;5049227;28;20709;-60
2023/08/29 04:59:47;;;;;;;4.90;3.80;;;14.40;99.90;;;;;;5035863;28;20427;-60
2023/08/29 05:02:13;;;;;;;5.53;5.03;;;14.40;99.90;;;;;;5049333;28;20223;-60
2023/08/29 05:04:38;;;;;;;6.50;4.67;;;14.40;99.90;;;;;;5055321;28;20609;-60
2023/08/29 05:07:04;;;;;;;4.60;4.17;;;14.50;99.90;;;;;;5055564;28;20430;-60
2023/08/29 05:09:29;;;;;;;4.63;4.20;;;14.50;99.90;;;;;;5055816;28;20173;-60
2023/08/29 05:11:55;;;;;;;6.80;5.03;;;14.50;99.90;;;;;;5053318;28;20182;-59
2023/08/29 05:14:21;;;;;;;4.60;3.60;;;14.60;99.90;;;;;;5047826;28;20177;-60
2023/08/29 05:16:46;;;;;;;6.33;5.10;;;14.60;99.90;;;;;;5055097;28;20177;-60
2023/08/29 05:19:12;;;;;;;6.77;4.57;;;14.60;99.90;;;;;;5054936;28;20185;-60
2023/08/29 05:21:38;;;;;;;5.73;5.23;;;14.60;99.90;;;;;;5055392;28;20170;-60
2023/08/29 05:24:04;;;;;;;7.90;4.93;;;14.60;99.90;;;;;;5054604;28;20184;-60
2023/08/29 05:26:29;;;;;;;5.83;5.23;;;14.60;99.90;;;;;;5055317;28;20182;-60
2023/08/29 05:28:55;;;;;;;6.60;4.50;;;14.70;99.90;;;;;;5055318;28;20929;-60
2023/08/29 05:31:20;;;;;;;6.00;4.97;;;14.70;99.90;;;;;;5055405;28;20169;-60
2023/08/29 05:33:46;;;;;;;6.90;4.97;;;14.70;99.90;;;;;;5054582;28;20230;-60
2023/08/29 05:36:12;;;;;;;5.40;4.90;;;14.70;99.90;;;;;;5055330;28;20282;-60
2023/08/29 05:38:37;;;;;;;5.33;4.70;;;14.80;99.90;;;;;;5055033;28;20215;-60
2023/08/29 05:41:03;;;;;;;5.57;5.07;;;14.80;99.90;;;;;;5055157;28;20173;-60
2023/08/29 05:43:29;;;;;;;7.73;4.47;;;14.80;99.90;;;;;;5054786;28;20174;-60
2023/08/29 05:45:55;;;;;;;6.07;5.47;;;14.80;99.90;;;;;;5054317;28;20753;-61
2023/08/29 05:48:21;;;;;;;5.50;4.97;;;14.80;99.90;;;;;;5054912;28;20181;-61
2023/08/29 05:50:50;;;;;;;5.77;5.03;;;14.80;99.90;;;;;;5054816;28;20787;-60
2023/08/29 05:53:16;;;;;;;8.00;5.00;;;14.90;99.90;;;;;;5054845;28;21027;-61
2023/08/29 05:55:42;;;;;;;9.63;7.53;;;14.90;99.90;;;;;;5054474;28;20489;-62
2023/08/29 05:58:08;;;;;;;6.00;5.40;;;14.90;99.90;;;;;;5054893;28;20415;-61
2023/08/29 06:00:35;;;;;;;5.23;4.57;;;14.90;99.90;;;;;;5054721;28;20211;-61
2023/08/29 06:03:03;;;;;;;4.93;4.40;;;14.80;99.90;;;;;;5054785;28;20253;-61
2023/08/29 06:05:31;;;;;;;5.60;4.80;;;14.90;99.90;;;;;;5054135;28;20440;-61
2023/08/29 06:07:59;;;;;;;5.70;4.87;;;14.90;99.90;;;;;;5036649;28;20965;-61
2023/08/29 06:10:24;;;;;;;6.00;4.80;;;14.80;99.90;;;;;;5054452;28;20419;-60
2023/08/29 06:12:50;;;;;;;6.17;5.17;;;14.80;99.90;;;;;;5053778;28;20431;-60
2023/08/29 06:15:16;;;;;;;5.23;4.73;;;14.80;99.90;;;;;;5053392;28;20275;-60
2023/08/29 06:17:41;;;;;;;6.23;5.63;;;14.80;99.90;;;;;;5054211;28;20175;-60
2023/08/29 06:20:08;;;;;;;6.37;4.63;;;14.80;99.90;;;;;;5054236;28;20650;-60
2023/08/29 06:22:34;;;;;;;4.77;4.27;;;14.80;99.90;;;;;;5053712;28;20184;-60
2023/08/29 06:24:59;;;;;;;5.80;5.13;;;14.80;99.90;;;;;;5053761;28;20494;-60
2023/08/29 06:27:25;;;;;;;5.03;4.50;;;14.90;99.90;;;;;;5053573;28;20231;-60
2023/08/29 06:29:50;;;;;;;6.03;5.50;;;14.80;99.90;;;;;;5053486;28;20595;-60
2023/08/29 06:32:16;;;;;;;5.17;4.67;;;14.80;99.90;;;;;;5053990;28;20213;-60
2023/08/29 06:34:42;;;;;;;8.17;5.87;;;14.80;99.90;;;;;;5053057;28;20752;-60
2023/08/29 06:37:07;;;;;;;7.10;6.40;;;14.90;99.90;;;;;;5053975;28;20558;-60
2023/08/29 06:39:33;;;;;;;5.57;5.00;;;14.80;99.90;;;;;;5053879;28;20205;-60
2023/08/29 06:41:58;;;;;;;6.87;6.27;;;14.80;99.90;;;;;;5053625;28;20174;-60
2023/08/29 06:44:24;;;;;;;5.93;5.07;;;14.90;99.90;;;;;;5053464;28;20166;-60
2023/08/29 06:46:49;;;;;;;5.87;5.30;;;14.90;99.90;;;;;;5053062;28;20275;-60
2023/08/29 06:49:15;;;;;;;5.47;4.97;;;14.90;99.90;;;;;;5053612;28;20193;-60
2023/08/29 06:51:41;;;;;;;7.10;5.33;;;14.90;99.90;;;;;;5053591;28;20173;-63
2023/08/29 06:54:07;;;;;;;5.33;4.83;;;14.90;99.90;;;;;;5048459;28;20934;-63
2023/08/29 06:56:32;;;;;;;7.27;6.57;;;15.00;99.90;;;;;;5033711;28;20287;-63
2023/08/29 06:58:58;;;;;;;7.37;6.03;;;15.00;99.90;;;;;;5044708;28;20665;-60
2023/08/29 07:01:24;;;;;;;7.47;6.73;;;15.10;99.90;;;;;;5053155;28;20178;-60
2023/08/29 07:03:51;;;;;;;6.83;5.70;;;15.20;99.90;;;;;;5053021;28;20517;-60
2023/08/29 07:06:17;;;;;;;6.13;5.53;;;15.30;99.90;;;;;;5052859;28;20506;-60
2023/08/29 07:08:43;;;;;;;9.10;5.70;;;15.30;99.90;;;;;;5053398;28;20416;-60
2023/08/29 07:11:09;;;;;;;8.53;6.10;;;15.30;99.90;;;;;;5035692;28;20173;-60
2023/08/29 07:13:34;;;;;;;6.30;4.57;;;15.30;99.90;;;;;;5053276;28;20407;-60
2023/08/29 07:16:00;;;;;;;5.83;5.33;;;15.30;99.90;;;;;;5053595;28;20607;-60
2023/08/29 07:18:26;;;;;;;4.50;4.10;;;15.30;99.90;;;;;;5053290;28;20260;-60
2023/08/29 07:20:51;;;;;;;5.17;4.67;;;15.30;99.90;;;;;;5053348;28;20336;-60
2023/08/29 07:23:17;;;;;;;5.60;5.17;;;15.30;99.90;;;;;;5053651;28;20233;-60
2023/08/29 07:25:44;;;;;;;5.83;5.23;;;15.30;99.90;;;;;;5052291;28;20194;-60
2023/08/29 07:28:14;;;;;;;7.47;6.50;;;15.30;99.90;;;;;;5052962;28;20232;-60
2023/08/29 07:30:46;;;;;;;5.80;4.93;;;15.30;99.90;;;;;;5053388;28;20405;-60
2023/08/29 07:33:12;;;;;;;5.07;4.57;;;15.20;99.90;;;;;;5035123;28;20447;-60
2023/08/29 07:35:39;;;;;;;5.27;4.77;;;15.20;99.90;;;;;;5052388;28;20926;-60
2023/08/29 07:38:05;;;;;;;6.43;5.27;;;15.20;99.90;;;;;;5035262;28;20485;-60
2023/08/29 07:40:33;;;;;;;5.97;4.90;;;15.10;99.90;;;;;;5053230;28;21028;-61
2023/08/29 07:43:03;;;;;;;6.63;6.03;;;15.10;99.90;;;;;;5053139;28;20404;-60
2023/08/29 07:45:29;;;;;;;4.90;4.50;;;15.10;99.90;;;;;;5052588;28;20814;-60
2023/08/29 07:47:55;;;;;;;4.80;4.40;;;15.10;99.90;;;;;;5053047;28;20405;-60
2023/08/29 07:50:21;;;;;;;5.57;4.13;;;15.10;99.90;;;;;;5053081;28;20872;-60
2023/08/29 07:52:46;;;;;;;5.50;4.70;;;15.10;99.90;;;;;;5053004;28;20629;-62
2023/08/29 07:55:12;;;;;;;5.63;5.13;;;15.10;99.90;;;;;;5052671;28;20233;-62
2023/08/29 07:57:37;;;;;;;5.97;4.13;;;15.10;99.90;;;;;;5053134;28;20184;-63
2023/08/29 08:00:06;;;;;;;6.13;4.80;;;15.20;99.90;;;;;;5052904;28;20236;-63
2023/08/29 08:02:34;;;;;;;10.13;5.33;;;15.30;99.90;;;;;;5053215;28;20173;-63
2023/08/29 08:05:01;;;;;;;8.07;6.17;;;15.40;99.90;;;;;;5052794;28;20406;-63
2023/08/29 08:07:27;;;;;;;6.23;5.33;;;15.40;99.90;;;;;;5052751;28;20431;-63
2023/08/29 08:09:52;;;;;;;5.40;4.93;;;15.50;99.90;;;;;;5053039;28;20388;-63
2023/08/29 08:12:18;;;;;;;4.60;4.20;;;15.60;99.90;;;;;;5052768;28;20173;-63
2023/08/29 08:14:43;;;;;;;4.97;4.43;;;15.70;99.90;;;;;;5052540;28;20273;-63
2023/08/29 08:17:09;;;;;;;5.23;4.73;;;15.70;99.90;;;;;;5052879;28;20183;-63
2023/08/29 08:19:35;;;;;;;4.77;4.27;;;15.80;99.90;;;;;;5052832;28;20578;-63
2023/08/29 08:22:00;;;;;;;4.90;4.40;;;15.90;99.90;;;;;;5052884;28;20401;-63
2023/08/29 08:24:26;;;;;;;4.27;3.97;;;15.90;99.90;;;;;;5052393;28;20244;-63
2023/08/29 08:26:52;;;;;;;4.67;4.27;;;15.90;99.90;;;;;;5052821;28;20548;-62
2023/08/29 08:29:17;;;;;;;5.90;4.63;;;15.90;99.90;;;;;;5052832;28;20186;-63
2023/08/29 08:31:43;;;;;;;5.37;4.87;;;16.00;99.90;;;;;;5052795;28;20186;-63
2023/08/29 08:34:10;;;;;;;4.70;4.00;;;16.10;99.90;;;;;;5052198;28;20183;-63
2023/08/29 08:36:35;;;;;;;4.30;3.90;;;16.20;99.90;;;;;;5052688;28;20573;-63
2023/08/29 08:39:01;;;;;;;4.07;3.67;;;16.40;99.90;;;;;;5034880;28;20444;-62
2023/08/29 08:41:27;;;;;;;4.73;4.10;;;16.50;99.90;;;;;;5052728;28;20175;-63
2023/08/29 08:43:55;;;;;;;3.30;3.10;;;16.70;99.90;;;;;;5051970;28;20207;-61
2023/08/29 08:46:21;;;;;;;4.53;4.13;;;16.80;99.90;;;;;;5055059;28;20911;-60
2023/08/29 08:48:47;;;;;;;3.33;3.03;;;16.80;99.90;;;;;;5038162;28;20477;-60
2023/08/29 08:51:15;;;;;;;4.20;3.90;;;16.90;99.90;;;;;;5056130;28;20749;-60
2023/08/29 08:53:41;;;;;;;3.60;3.30;;;16.80;99.90;;;;;;5055832;28;20581;-61
2023/08/29 08:56:08;;;;;;;3.03;2.83;;;16.90;99.90;;;;;;5056134;28;20410;-61
2023/08/29 08:58:35;;;;;;;3.67;3.40;;;17.00;99.90;;;;;;5056009;28;20431;-61
2023/08/29 09:01:02;;;;;;;3.73;3.43;;;17.10;99.90;;;;;;5056065;28;20473;-62
2023/08/29 09:03:28;;;;;;;3.50;3.20;;;17.20;99.90;;;;;;5055605;28;20418;-62
2023/08/29 09:05:53;;;;;;;3.00;2.80;;;17.10;99.90;;;;;;5055358;28;20420;-62
2023/08/29 09:08:22;;;;;;;3.77;3.43;;;17.10;99.90;;;;;;5055687;28;20193;-62
2023/08/29 09:10:52;;;;;;;4.77;3.40;;;17.00;99.90;;;;;;5055639;28;20544;-61
2023/08/29 09:13:20;;;;;;;4.20;4.00;;;16.90;99.90;;;;;;5055771;28;20422;-61
2023/08/29 09:15:46;;;;;;;4.20;3.80;;;16.90;99.90;;;;;;5055261;28;20424;-61
2023/08/29 09:18:13;;;;;;;3.70;3.30;;;16.90;99.90;;;;;;5055489;28;20468;-61
2023/08/29 09:20:43;;;;;;;3.33;3.13;;;16.90;99.90;;;;;;5055551;28;20471;-61
2023/08/29 09:23:37;;;;;;;3.80;3.50;;;17.00;99.90;;;;;;5055543;28;20923;-61
2023/08/29 09:26:04;;;;;;;5.00;3.97;;;17.00;99.90;;;;;;5053104;28;20772;-64
2023/08/29 09:28:30;;;;;;;4.20;3.80;;;17.10;99.90;;;;;;5055135;28;20426;-60
2023/08/29 09:31:04;;;;;;;3.57;3.30;;;17.10;99.90;;;;;;5055454;28;20408;-61
2023/08/29 09:33:30;;;;;;;3.73;3.43;;;17.10;99.90;;;;;;5055163;28;20734;-61
2023/08/29 09:35:56;;;;;;;3.60;3.30;;;17.20;99.90;;;;;;5055281;28;20429;-60
2023/08/29 09:38:22;;;;;;;3.93;3.60;;;17.10;99.90;;;;;;5055347;28;20402;-60
2023/08/29 09:40:48;;;;;;;4.50;4.10;;;17.10;99.90;;;;;;5055009;28;20173;-62
2023/08/29 09:43:15;;;;;;;3.90;3.60;;;17.10;99.90;;;;;;5055025;28;20378;-61
2023/08/29 09:45:42;;;;;;;4.90;4.50;;;17.10;99.90;;;;;;5054805;28;20435;-62
2023/08/29 09:48:09;;;;;;;4.73;3.60;;;17.10;99.90;;;;;;5055278;28;20920;-61
2023/08/29 09:50:35;;;;;;;4.40;4.00;;;17.10;99.90;;;;;;5055055;28;20394;-61
2023/08/29 09:53:02;;;;;;;3.90;3.60;;;17.10;99.90;;;;;;5054952;28;20761;-60
2023/08/29 09:55:33;;;;;;;3.37;3.13;;;17.20;99.90;;;;;;5054602;28;20424;-60
2023/08/29 09:58:01;;;;;;;3.93;3.63;;;17.30;99.90;;;;;;5054211;28;20904;-60
2023/08/29 10:00:27;;;;;;;3.83;3.47;;;17.30;99.90;;;;;;5054569;28;20437;-60
2023/08/29 10:02:56;;;;;;;4.93;2.77;;;17.40;99.90;;;;;;5054901;28;20487;-60
2023/08/29 10:05:25;;;;;;;4.30;3.80;;;17.30;99.90;;;;;;5054519;28;20422;-60
2023/08/29 10:07:55;;;;;;;3.40;3.10;;;17.30;99.90;;;;;;5054655;28;20402;-59
2023/08/29 10:10:21;;;;;;;4.00;3.70;;;17.20;99.90;;;;;;5054478;28;20425;-60
2023/08/29 10:12:48;;;;;;;3.57;3.27;;;17.20;99.90;;;;;;5054353;28;20415;-61
2023/08/29 10:15:18;;;;;;;3.70;3.40;;;17.20;99.90;;;;;;5053926;28;20418;-60
2023/08/29 10:17:45;;;;;;;3.60;3.27;;;17.30;99.90;;;;;;5054629;28;20412;-60
2023/08/29 10:20:12;;;;;;;4.10;3.80;;;17.40;99.90;;;;;;5036460;28;20463;-59
2023/08/29 10:22:41;;;;;;;3.37;3.17;;;17.60;99.90;;;;;;5054471;28;20732;-60
2023/08/29 10:25:07;;;;;;;4.33;3.93;;;17.80;99.90;;;;;;5053791;28;20395;-60
2023/08/29 10:27:34;;;;;;;4.13;3.83;;;17.90;99.90;;;;;;5036465;28;20493;-60
2023/08/29 10:30:05;;;;;;;3.40;3.20;;;18.10;99.90;;;;;;5054387;28;20756;-59
2023/08/29 10:32:32;;;;;;;3.40;3.10;;;18.20;99.90;;;;;;5054262;28;20394;-62
2023/08/29 10:34:59;;;;;;;3.50;3.30;;;18.40;99.90;;;;;;5053651;28;20468;-60
2023/08/29 10:37:26;;;;;;;3.60;3.30;;;18.40;99.90;;;;;;5054358;28;20392;-60
2023/08/29 10:39:51;;;;;;;4.30;3.90;;;18.50;99.90;;;;;;5054206;28;20441;-60
2023/08/29 10:42:17;;;;;;;3.63;3.33;;;18.60;99.90;;;;;;5036103;28;20391;-60
2023/08/29 10:44:44;;;;;;;3.87;3.57;;;18.70;99.90;;;;;;5053642;28;20189;-60
2023/08/29 10:47:15;;;;;;;4.20;3.90;;;18.90;99.90;;;;;;5054394;28;20375;-61
2023/08/29 10:49:44;;;;;;;3.63;3.43;;;19.10;99.90;;;;;;5054175;28;20461;-61
2023/08/29 10:52:10;;;;;;;3.10;2.90;;;19.20;99.90;;;;;;5053963;28;20465;-61
2023/08/29 10:54:37;;;;;;;5.20;3.47;;;19.40;99.90;;;;;;5053574;28;20723;-61
2023/08/29 10:57:29;;;;;;;3.50;3.10;;;19.60;99.90;;;;;;5053826;28;20420;-60
2023/08/29 10:59:57;;;;;;;3.40;3.13;;;19.70;99.90;;;;;;5053850;28;20465;-59
2023/08/29 11:02:27;;;;;;;3.00;2.77;;;19.60;99.90;;;;;;5053698;28;20396;-59
2023/08/29 11:05:09;;;;;;;3.53;2.80;;;19.60;99.90;;;;;;5052836;28;20987;-60
2023/08/29 11:07:35;;;;;;;3.23;3.03;;;19.50;99.90;;;;;;5052917;28;21031;-60
2023/08/29 11:10:20;;;;;;;3.20;2.90;;;19.40;99.90;;;;;;5052739;28;20495;-62
2023/08/29 11:13:06;;;;;;;3.83;3.53;;;19.10;99.90;;;;;;5051684;28;20169;-60
2023/08/29 11:15:49;;;;;;;2.87;2.73;;;18.90;99.90;;;;;;5052443;28;20811;-62
2023/08/29 11:18:20;;;;;;;4.10;3.80;;;18.70;99.90;;;;;;5051323;28;20925;-60
2023/08/29 11:20:46;;;;;;;3.47;3.17;;;18.30;99.90;;;;;;5053485;28;20463;-59
2023/08/29 11:23:12;;;;;;;3.77;3.47;;;17.90;99.90;;;;;;5053571;28;20912;-61
2023/08/29 11:25:38;;;;;;;4.70;4.30;;;17.50;99.90;;;;;;5053050;28;20405;-61
2023/08/29 11:28:04;;;;;;;5.40;4.90;;;17.10;99.90;;;;;;5052345;28;20411;-60
2023/08/29 11:30:30;;;;;;;5.00;4.33;;;16.90;99.90;;;;;;5052688;28;20411;-60
2023/08/29 11:32:56;;;;;;;5.20;4.80;;;16.70;99.90;;;;;;5052941;28;20890;-59
2023/08/29 11:35:21;;;;;;;4.43;4.13;;;16.60;99.90;;;;;;5052669;28;20435;-60
2023/08/29 11:37:48;;;;;;;5.30;4.73;;;16.50;99.90;;;;;;5052773;28;20183;-60
2023/08/29 11:40:18;;;;;;;5.73;5.13;;;16.50;99.90;;;;;;5052787;28;20211;-60
2023/08/29 11:42:44;;;;;;;6.97;4.53;;;16.60;99.90;;;;;;5053027;28;20423;-61
2023/08/29 11:45:10;;;;;;;6.70;5.70;;;16.70;99.90;;;;;;5052700;28;20488;-60
2023/08/29 11:47:35;;;;;;;6.73;6.00;;;16.90;99.90;;;;;;5053161;28;20172;-60
2023/08/29 11:50:04;;;;;;;6.67;5.30;;;17.00;99.90;;;;;;5053270;28;20393;-60
2023/08/29 11:52:31;;;;;;;6.70;6.10;;;17.20;99.90;;;;;;5053219;28;20172;-60
2023/08/29 11:54:56;;;;;;;7.93;5.80;;;17.40;99.90;;;;;;5052721;28;20738;-60
2023/08/29 11:57:23;;;;;;;5.00;4.50;;;17.60;99.90;;;;;;5053155;28;20390;-61
2023/08/29 11:59:52;;;;;;;4.50;4.10;;;17.70;99.90;;;;;;5052941;28;20194;-60
2023/08/29 12:02:18;;;;;;;5.30;4.37;;;17.90;99.90;;;;;;5053163;28;20416;-59
2023/08/29 12:04:45;;;;;;;4.17;3.87;;;17.90;99.90;;;;;;5052699;28;20399;-60
2023/08/29 12:07:12;;;;;;;4.60;4.20;;;18.00;99.90;;;;;;5052930;28;20406;-59
2023/08/29 12:09:41;;;;;;;4.90;4.50;;;18.10;99.90;;;;;;5053066;28;20416;-59
2023/08/29 12:12:07;;;;;;;3.80;3.50;;;18.10;99.90;;;;;;5052710;28;20484;-59
2023/08/29 12:14:49;;;;;;;3.87;3.57;;;18.10;99.90;;;;;;5052546;28;20499;-59
2023/08/29 12:17:16;;;;;;;4.57;4.20;;;18.10;99.90;;;;;;5053094;28;20542;-60
2023/08/29 12:19:42;;;;;;;4.57;4.17;;;18.20;99.90;;;;;;5053280;28;20422;-59
2023/08/29 12:22:07;;;;;;;5.23;4.73;;;18.20;99.90;;;;;;5039283;28;20449;-60
2023/08/29 12:24:33;;;;;;;4.27;3.93;;;18.30;99.90;;;;;;5056367;28;20404;-60
2023/08/29 12:26:59;;;;;;;5.30;4.80;;;18.40;99.90;;;;;;5056818;28;20177;-60
2023/08/29 12:29:25;;;;;;;5.00;4.60;;;18.40;99.90;;;;;;5056719;28;20386;-60
2023/08/29 12:31:50;;;;;;;5.00;4.60;;;18.40;99.90;;;;;;5056044;28;20561;-61
2023/08/29 12:34:16;;;;;;;5.80;4.40;;;18.40;99.90;;;;;;5055732;28;20564;-60
2023/08/29 12:36:41;;;;;;;3.70;3.40;;;18.40;99.90;;;;;;5053483;28;20221;-61
2023/08/29 12:39:08;;;;;;;5.10;4.70;;;18.30;99.90;;;;;;5054629;28;20223;-60
2023/08/29 12:41:35;;;;;;;3.93;3.63;;;18.40;99.90;;;;;;5055882;28;20234;-60
2023/08/29 12:44:02;;;;;;;4.80;4.40;;;18.30;99.90;;;;;;5056034;28;20777;-59
2023/08/29 12:46:30;;;;;;;4.00;3.70;;;18.30;99.90;;;;;;5056289;28;20424;-61
2023/08/29 12:48:56;;;;;;;3.17;2.87;;;18.40;99.90;;;;;;5056378;28;20394;-60
2023/08/29 12:51:22;;;;;;;3.37;3.17;;;18.40;99.90;;;;;;5056147;28;20418;-61
2023/08/29 12:53:49;;;;;;;3.27;2.97;;;18.30;99.90;;;;;;5055740;28;20219;-59
2023/08/29 12:56:15;;;;;;;2.33;2.23;;;18.20;99.90;;;;;;5055704;28;20196;-60
2023/08/29 12:58:42;;;;;;;2.37;2.27;;;18.20;99.90;;;;;;5056022;28;20729;-60
2023/08/29 13:01:08;;;;;;;2.37;2.17;;;18.00;99.90;;;;;;5056212;28;20400;-61
2023/08/29 13:03:33;;;;;;;2.97;2.77;;;17.90;99.90;;;;;;5055738;28;20394;-61
2023/08/29 13:05:59;;;;;;;2.70;2.50;;;17.80;99.90;;;;;;5055371;28;20419;-60
2023/08/29 13:08:25;;;;;;;2.90;2.53;;;17.80;99.90;;;;;;5055735;28;20184;-60
2023/08/29 13:10:50;;;;;;;2.63;2.43;;;17.80;99.90;;;;;;5055758;28;20182;-61
2023/08/29 13:13:16;;;;;;;2.67;2.57;;;17.80;99.90;;;;;;5056340;28;20182;-60
2023/08/29 13:15:42;;;;;;;3.60;3.40;;;17.80;99.90;;;;;;5054864;28;20273;-61
2023/08/29 13:18:07;;;;;;;3.10;2.90;;;17.90;99.90;;;;;;5037808;28;20188;-60
2023/08/29 13:20:33;;;;;;;3.57;3.23;;;17.90;99.90;;;;;;5055353;28;20603;-61
2023/08/29 13:23:00;;;;;;;2.80;2.63;;;18.00;99.90;;;;;;5055632;28;20181;-60
2023/08/29 13:25:28;;;;;;;3.20;2.97;;;18.10;99.90;;;;;;5055294;28;20427;-60
2023/08/29 13:27:55;;;;;;;3.27;3.07;;;18.20;99.90;;;;;;5037595;28;20899;-61
2023/08/29 13:30:21;;;;;;;4.40;3.27;;;18.40;99.90;;;;;;5055486;28;20884;-61
2023/08/29 13:32:48;;;;;;;3.00;2.80;;;18.50;99.90;;;;;;5054313;28;20893;-60
2023/08/29 13:35:14;;;;;;;2.53;2.33;;;18.50;99.90;;;;;;5054596;28;20458;-60
2023/08/29 13:37:40;;;;;;;3.10;2.90;;;18.60;99.90;;;;;;5055065;28;20423;-59
2023/08/29 13:40:08;;;;;;;2.37;2.20;;;18.60;99.90;;;;;;5055039;28;20995;-60
2023/08/29 13:42:34;;;;;;;2.60;2.40;;;18.70;99.90;;;;;;5055331;28;20181;-60
2023/08/29 13:45:01;;;;;;;2.80;2.60;;;18.80;99.90;;;;;;5054851;28;20447;-60
2023/08/29 13:47:26;;;;;;;2.30;2.20;;;18.80;99.90;;;;;;5055180;28;20461;-60
2023/08/29 13:49:53;;;;;;;2.10;2.00;;;18.70;99.90;;;;;;5054865;28;20482;-61
2023/08/29 13:52:19;;;;;;;2.00;1.90;;;18.80;99.90;;;;;;5055062;28;20513;-60
2023/08/29 13:54:45;;;;;;;2.33;2.23;;;18.80;99.90;;;;;;5054665;28;20824;-60
2023/08/29 13:57:10;;;;;;;2.20;2.10;;;18.80;99.90;;;;;;5054924;28;20379;-60
2023/08/29 13:59:36;;;;;;;3.17;2.97;;;18.80;99.90;;;;;;5055089;28;20205;-60
2023/08/29 14:02:02;;;;;;;3.07;2.80;;;18.80;99.90;;;;;;5055050;28;20264;-60
2023/08/29 14:04:27;;;;;;;2.90;2.70;;;18.80;99.90;;;;;;5054018;28;20532;-60
2023/08/29 14:06:53;;;;;;;4.33;3.93;;;18.80;99.90;;;;;;5054449;28;20189;-60
2023/08/29 14:09:19;;;;;;;4.30;4.00;;;18.80;99.90;;;;;;5036841;28;20189;-59
2023/08/29 14:11:44;;;;;;;2.63;2.43;;;18.90;99.90;;;;;;5054823;28;20205;-59
2023/08/29 14:14:11;;;;;;;3.10;2.90;;;18.90;99.90;;;;;;5054306;28;20272;-59
2023/08/29 14:16:37;;;;;;;2.50;2.30;;;18.90;99.90;;;;;;5054619;28;20206;-61
2023/08/29 14:19:03;;;;;;;3.17;2.90;;;18.90;99.90;;;;;;5054270;28;20492;-61
2023/08/29 14:21:29;;;;;;;3.07;2.90;;;18.90;99.90;;;;;;5054365;28;20173;-60
2023/08/29 14:23:54;;;;;;;2.83;2.63;;;18.90;99.90;;;;;;5054197;28;20745;-60
2023/08/29 14:26:20;;;;;;;2.33;2.23;;;18.80;99.90;;;;;;5054362;28;20250;-60
2023/08/29 14:28:45;;;;;;;2.80;2.60;;;18.90;99.90;;;;;;5054462;28;20212;-59
2023/08/29 14:31:11;;;;;;;2.87;2.70;;;18.90;99.90;;;;;;5054368;28;20174;-59
2023/08/29 14:33:37;;;;;;;2.23;2.13;;;19.00;99.90;;;;;;5053955;28;20259;-59
2023/08/29 14:36:03;;;;;;;2.23;2.10;;;19.00;99.90;;;;;;5053798;28;20237;-60
2023/08/29 14:38:30;;;;;;;2.23;2.13;;;19.10;99.90;;;;;;5054092;28;20421;-61
2023/08/29 14:41:06;;;;;;;1.80;1.70;;;19.10;99.90;;;;;;5054110;28;20467;-60
2023/08/29 14:43:31;;;;;;;1.80;1.70;;;19.10;99.90;;;;;;5053600;28;20386;-60
2023/08/29 14:45:57;;;;;;;1.30;1.20;;;19.10;99.90;;;;;;5054034;28;20431;-61
2023/08/29 14:48:22;;;;;;;2.53;2.33;;;19.00;99.90;;;;;;5054048;28;20264;-60
2023/08/29 14:50:48;;;;;;;1.83;1.73;;;18.90;99.90;;;;;;5053650;28;20243;-60
2023/08/29 14:53:14;;;;;;;1.47;1.37;;;19.00;99.90;;;;;;5054258;28;20247;-60
2023/08/29 14:55:39;;;;;;;1.67;1.57;;;18.90;99.90;;;;;;5053607;28;20207;-61
2023/08/29 14:58:05;;;;;;;1.47;1.37;;;18.90;99.90;;;;;;5053933;28;20577;-60
2023/08/29 15:00:30;;;;;;;1.00;1.00;;;18.90;99.90;;;;;;5053809;28;20205;-61
2023/08/29 15:02:56;;;;;;;1.33;1.30;;;18.80;99.90;;;;;;5053792;28;20252;-61
2023/08/29 15:05:22;;;;;;;1.60;1.50;;;18.80;99.90;;;;;;5053116;28;20267;-59
2023/08/29 15:07:47;;;;;;;1.27;1.27;;;18.80;99.90;;;;;;5053534;28;20177;-60
2023/08/29 15:10:13;;;;;;;1.20;1.20;;;18.80;99.90;;;;;;5053546;28;20240;-60
2023/08/29 15:12:38;;;;;;;3.10;1.83;;;18.80;99.90;;;;;;5053506;28;20184;-60
2023/08/29 15:15:04;;;;;;;1.90;1.23;;;18.70;99.90;;;;;;5053042;28;20681;-59
2023/08/29 15:17:30;;;;;;;2.00;1.90;;;18.70;99.90;;;;;;5053077;28;20192;-59
2023/08/29 15:19:56;;;;;;;1.80;1.70;;;18.60;99.90;;;;;;5053616;28;20455;-59
2023/08/29 15:22:22;;;;;;;1.30;1.20;;;18.50;99.90;;;;;;5053594;28;20535;-59
2023/08/29 15:24:48;;;;;;;1.63;1.50;;;18.50;99.90;;;;;;5052879;28;20410;-60
2023/08/29 15:27:14;;;;;;;1.20;1.20;;;18.50;99.90;;;;;;5053287;28;20235;-60
2023/08/29 15:29:39;;;;;;;1.57;1.47;;;18.50;99.90;;;;;;5053207;28;20582;-60
2023/08/29 15:32:05;;;;;;;1.70;1.60;;;18.40;99.90;;;;;;5053086;28;20515;-60
2023/08/29 15:34:32;;;;;;;2.50;2.30;;;18.40;99.90;;;;;;5052718;28;20614;-59
2023/08/29 15:36:58;;;;;;;1.90;1.20;;;18.50;99.90;;;;;;5053315;28;20403;-61
2023/08/29 15:39:24;;;;;;;1.80;1.70;;;18.50;99.90;;;;;;5053146;28;20448;-61
2023/08/29 15:41:49;;;;;;;2.67;2.50;;;18.50;99.90;;;;;;5053320;28;20400;-59
2023/08/29 15:44:15;;;;;;;3.00;2.80;;;18.50;99.90;;;;;;5052893;28;20884;-59
2023/08/29 15:46:40;;;;;;;2.33;2.00;;;18.50;99.90;;;;;;5052709;28;20200;-60
2023/08/29 15:49:06;;;;;;;2.00;1.90;;;18.40;99.90;;;;;;5053109;28;20178;-59
2023/08/29 15:51:31;;;;;;;1.77;1.67;;;18.40;99.90;;;;;;5053217;28;20663;-60
2023/08/29 15:53:57;;;;;;;2.70;2.50;;;18.40;99.90;;;;;;5052770;28;20184;-60
2023/08/29 15:56:23;;;;;;;1.63;1.53;;;18.30;99.90;;;;;;5056319;28;20197;-60
2023/08/29 15:58:49;;;;;;;1.63;1.53;;;18.30;99.90;;;;;;5057253;28;20223;-60
2023/08/29 16:01:16;;;;;;;1.80;1.70;;;18.30;99.90;;;;;;5057128;28;20170;-59
2023/08/29 16:03:41;;;;;;;2.10;2.00;;;18.30;99.90;;;;;;5056815;28;20755;-60
2023/08/29 16:06:07;;;;;;;2.07;1.97;;;18.20;99.90;;;;;;5056941;28;20425;-60
2023/08/29 16:08:34;;;;;;;4.97;1.83;;;18.30;99.90;;;;;;5057201;28;20705;-60
2023/08/29 16:10:59;;;;;;;1.90;1.80;;;18.30;99.90;;;;;;5057004;28;20169;-60
2023/08/29 16:13:25;;;;;;;1.80;1.70;;;18.30;99.90;;;;;;5056900;28;20730;-61
2023/08/29 16:15:55;;;;;;;1.40;1.40;;;18.30;99.90;;;;;;5056337;28;20206;-60
2023/08/29 16:18:21;;;;;;;2.20;2.10;;;18.40;99.90;;;;;;5056613;28;20594;-59
2023/08/29 16:20:47;;;;;;;1.90;1.80;;;18.40;99.90;;;;;;5056882;28;20444;-59
2023/08/29 16:23:12;;;;;;;1.80;1.70;;;18.30;99.90;;;;;;5056951;28;20184;-59
2023/08/29 16:25:39;;;;;;;2.40;2.20;;;18.30;99.90;;;;;;5055856;28;20192;-60
2023/08/29 16:28:05;;;;;;;1.90;1.80;;;18.30;99.90;;;;;;5054552;28;20177;-60
2023/08/29 16:30:30;;;;;;;5.27;4.77;;;18.20;99.90;;;;;;5056084;28;20413;-60
2023/08/29 16:32:56;;;;;;;3.00;2.73;;;18.20;99.90;;;;;;5056391;28;20182;-61
2023/08/29 16:35:21;;;;;;;2.80;2.50;;;18.20;99.90;;;;;;5054980;28;20201;-60
2023/08/29 16:37:47;;;;;;;1.90;1.77;;;18.20;99.90;;;;;;5038643;28;20169;-61
2023/08/29 16:40:13;;;;;;;2.10;2.00;;;18.10;99.90;;;;;;5055979;28;20667;-60
2023/08/29 16:42:38;;;;;;;2.17;2.00;;;18.10;99.90;;;;;;5056516;28;20197;-59
2023/08/29 16:45:06;;;;;;;1.77;1.67;;;18.10;99.90;;;;;;5038035;28;20614;-60
2023/08/29 16:47:31;;;;;;;1.93;1.83;;;18.10;99.90;;;;;;5056149;28;20532;-60
2023/08/29 16:49:57;;;;;;;1.83;1.73;;;18.10;99.90;;;;;;5055603;28;20428;-59